createdAt,value
2023-02-11T00:02:16.852Z,45.00
2023-02-11T00:05:18.189Z,45.00
2023-02-11T00:08:19.455Z,45.10
2023-02-11T00:11:22.121Z,45.00
2023-02-11T00:14:23.400Z,44.90
2023-02-11T00:17:24.888Z,45.10
2023-02-11T00:20:26.168Z,45.70
2023-02-11T00:23:27.428Z,45.10
2023-02-11T00:26:30.346Z,45.50
2023-02-11T00:29:31.772Z,44.90
2023-02-11T00:32:33.462Z,45.00
2023-02-11T00:35:36.077Z,45.20
2023-02-11T00:38:37.348Z,44.60
2023-02-11T00:41:39.182Z,45.10
2023-02-11T00:44:40.511Z,44.90
2023-02-11T00:47:41.896Z,45.20
2023-02-11T00:50:43.249Z,45.30
2023-02-11T00:53:44.499Z,45.10
2023-02-11T00:56:46.262Z,44.80
2023-02-11T00:59:47.530Z,45.10
2023-02-11T01:02:48.825Z,44.80
2023-02-11T01:05:50.516Z,45.00
2023-02-11T01:08:51.898Z,44.90
2023-02-11T01:11:53.783Z,45.20
2023-02-11T01:14:55.058Z,45.10
2023-02-11T01:17:56.509Z,45.10
2023-02-11T01:20:57.749Z,45.30
2023-02-11T01:23:59.023Z,44.90
2023-02-11T01:27:00.831Z,44.90
2023-02-11T01:30:02.884Z,44.80
2023-02-11T01:33:04.255Z,44.70
2023-02-11T01:36:06.444Z,45.10
2023-02-11T01:39:08.067Z,45.00
2023-02-11T01:42:10.974Z,45.00
2023-02-11T01:45:24.876Z,45.10
2023-02-11T01:48:28.591Z,45.20
2023-02-11T01:51:32.624Z,45.40
2023-02-11T01:54:50.321Z,45.20
2023-02-11T01:57:55.501Z,45.10
2023-02-11T02:00:58.039Z,45.20
2023-02-11T02:04:01.107Z,45.00
2023-02-11T02:07:05.934Z,45.10
2023-02-11T02:10:08.866Z,44.90
2023-02-11T02:13:12.003Z,45.20
2023-02-11T02:16:15.462Z,44.90
2023-02-11T02:19:31.636Z,45.00
2023-02-11T02:22:41.549Z,45.20
2023-02-11T02:25:55.634Z,45.00
2023-02-11T02:29:11.703Z,44.70
2023-02-11T02:32:20.246Z,44.80
2023-02-11T02:35:25.739Z,44.60
2023-02-11T02:38:29.967Z,44.70
2023-02-11T02:41:32.822Z,44.80
2023-02-11T02:44:34.076Z,44.60
2023-02-11T02:47:35.863Z,44.90
2023-02-11T02:50:37.444Z,44.80
2023-02-11T02:53:45.097Z,45.00
2023-02-11T02:56:49.728Z,44.60
2023-02-11T02:59:59.103Z,44.60
2023-02-11T03:03:09.245Z,44.50
2023-02-11T03:06:12.853Z,44.50
2023-02-11T03:09:15.848Z,44.80
2023-02-11T03:12:17.600Z,44.50
2023-02-11T03:15:19.720Z,44.60
2023-02-11T03:18:23.031Z,44.50
2023-02-11T03:21:24.946Z,44.60
2023-02-11T03:24:29.778Z,44.60
2023-02-11T03:27:36.102Z,44.50
2023-02-11T03:30:39.930Z,44.30
2023-02-11T03:33:46.488Z,44.40
2023-02-11T03:36:50.572Z,44.30
2023-02-11T03:39:54.050Z,44.30
2023-02-11T03:42:57.612Z,44.40
2023-02-11T03:45:59.622Z,44.40
2023-02-11T03:49:02.934Z,44.20
2023-02-11T03:52:05.446Z,44.50
2023-02-11T03:55:08.388Z,44.70
2023-02-11T03:58:09.982Z,44.30
2023-02-11T04:01:11.315Z,44.40
2023-02-11T04:04:13.305Z,44.70
2023-02-11T04:07:14.659Z,44.30
2023-02-11T04:10:16.058Z,44.40
2023-02-11T04:13:17.339Z,44.40
2023-02-11T04:16:18.639Z,44.50
2023-02-11T04:19:20.467Z,44.30
2023-02-11T04:22:21.827Z,44.10
2023-02-11T04:25:23.122Z,44.80
2023-02-11T04:28:25.941Z,44.30
2023-02-11T04:31:27.336Z,44.10
2023-02-11T04:34:29.205Z,44.40
2023-02-11T04:37:30.511Z,43.90
2023-02-11T04:40:31.849Z,44.10
2023-02-11T04:43:33.065Z,44.20
2023-02-11T04:46:34.549Z,44.00
2023-02-11T04:49:36.408Z,44.10
2023-02-11T04:52:37.811Z,44.10
2023-02-11T04:55:39.099Z,43.90
2023-02-11T04:58:40.390Z,43.50
2023-02-11T05:01:41.708Z,43.90
2023-02-11T05:04:43.586Z,44.10
2023-02-11T05:07:44.947Z,43.90
2023-02-11T05:10:46.756Z,44.10
2023-02-11T05:13:47.985Z,43.60
2023-02-11T05:16:49.287Z,43.70
2023-02-11T05:19:51.121Z,43.70
2023-02-11T05:22:52.505Z,43.90
2023-02-11T05:25:53.766Z,44.10
2023-02-11T05:28:55.396Z,43.90
2023-02-11T05:31:57.842Z,43.50
2023-02-11T05:34:59.682Z,43.50
2023-02-11T05:38:00.972Z,43.60
2023-02-11T05:41:02.841Z,43.60
2023-02-11T05:44:04.110Z,43.50
2023-02-11T05:47:07.778Z,43.50
2023-02-11T05:50:09.649Z,43.40
2023-02-11T05:53:11.198Z,43.40
2023-02-11T05:56:13.759Z,43.60
2023-02-11T05:59:15.071Z,43.40
2023-02-11T06:02:16.362Z,43.40
2023-02-11T06:05:18.262Z,43.50
2023-02-11T06:08:19.588Z,43.20
2023-02-11T06:11:20.920Z,43.40
2023-02-11T06:14:22.141Z,43.50
2023-02-11T06:17:24.539Z,43.30
2023-02-11T06:20:26.318Z,43.10
2023-02-11T06:23:30.240Z,43.30
2023-02-11T06:26:32.188Z,43.40
2023-02-11T06:29:33.439Z,43.10
2023-02-11T06:32:43.838Z,43.00
2023-02-11T06:35:46.572Z,43.10
2023-02-11T06:38:47.980Z,43.00
2023-02-11T06:41:49.318Z,43.10
2023-02-11T06:44:50.529Z,43.10
2023-02-11T06:47:52.259Z,43.30
2023-02-11T06:50:54.079Z,42.90
2023-02-11T06:53:55.455Z,43.10
2023-02-11T06:56:56.786Z,43.40
2023-02-11T06:59:58.056Z,42.70
2023-02-11T07:02:59.390Z,43.00
2023-02-11T07:06:01.327Z,43.60
2023-02-11T07:09:02.693Z,43.70
2023-02-11T07:12:04.254Z,43.10
2023-02-11T07:15:05.711Z,43.40
2023-02-11T07:18:07.070Z,43.10
2023-02-11T07:21:10.435Z,43.00
2023-02-11T07:24:12.368Z,42.90
2023-02-11T07:27:13.626Z,42.90
2023-02-11T07:30:14.993Z,43.10
2023-02-11T07:33:16.238Z,43.20
2023-02-11T07:36:18.001Z,43.00
2023-02-11T07:39:21.086Z,42.90
2023-02-11T07:42:22.415Z,42.80
2023-02-11T07:45:24.471Z,43.10
2023-02-11T07:48:25.733Z,42.90
2023-02-11T07:51:28.568Z,43.30
2023-02-11T07:54:29.887Z,42.90
2023-02-11T07:57:31.153Z,42.80
2023-02-11T08:00:32.392Z,42.70
2023-02-11T08:03:33.765Z,42.70
2023-02-11T08:06:39.465Z,42.70
2023-02-11T08:09:40.840Z,43.00
2023-02-11T08:12:42.152Z,42.60
2023-02-11T08:15:43.460Z,42.90
2023-02-11T08:18:44.919Z,42.70
2023-02-11T08:21:46.758Z,42.90
2023-02-11T08:24:50.101Z,42.40
2023-02-11T08:27:52.659Z,42.60
2023-02-11T08:30:54.018Z,42.70
2023-02-11T08:33:57.306Z,42.80
2023-02-11T08:36:59.174Z,42.30
2023-02-11T08:40:00.493Z,42.50
2023-02-11T08:43:01.979Z,42.40
2023-02-11T08:46:03.434Z,42.80
2023-02-11T08:49:04.756Z,42.50
2023-02-11T08:52:06.675Z,42.40
2023-02-11T08:55:07.963Z,42.40
2023-02-11T08:58:09.230Z,42.90
2023-02-11T09:01:11.436Z,42.30
2023-02-11T09:04:12.842Z,42.40
2023-02-11T09:07:14.667Z,42.20
2023-02-11T09:10:16.029Z,42.60
2023-02-11T09:13:17.401Z,42.40
2023-02-11T09:16:19.712Z,42.30
2023-02-11T09:19:22.221Z,42.20
2023-02-11T09:22:24.072Z,42.40
2023-02-11T09:25:25.334Z,42.40
2023-02-11T09:28:26.595Z,42.60
2023-02-11T09:31:29.074Z,42.30
2023-02-11T09:34:31.824Z,42.10
2023-02-11T09:37:35.723Z,42.50
2023-02-11T09:40:41.508Z,42.20
2023-02-11T09:43:44.236Z,42.10
2023-02-11T09:46:48.125Z,42.00
2023-02-11T09:49:50.456Z,42.30
2023-02-11T09:52:55.981Z,42.30
2023-02-11T09:55:59.000Z,42.00
2023-02-11T09:59:00.260Z,41.90
2023-02-11T10:02:03.521Z,42.00
2023-02-11T10:05:14.077Z,42.30
2023-02-11T10:08:19.602Z,41.80
2023-02-11T10:11:31.583Z,41.80
2023-02-11T10:14:48.601Z,42.30
2023-02-11T10:17:58.043Z,42.40
2023-02-11T10:21:06.091Z,42.10
2023-02-11T10:24:10.418Z,41.90
2023-02-11T10:27:15.824Z,42.10
2023-02-11T10:30:21.389Z,42.10
2023-02-11T10:33:25.164Z,41.90
2023-02-11T10:36:28.304Z,42.20
2023-02-11T10:39:31.054Z,41.90
2023-02-11T10:42:32.436Z,42.30
2023-02-11T10:45:35.607Z,41.90
2023-02-11T10:48:39.189Z,41.90
2023-02-11T10:51:40.445Z,42.20
2023-02-11T10:54:54.649Z,42.40
2023-02-11T10:57:57.531Z,42.30
2023-02-11T11:00:59.536Z,42.10
2023-02-11T11:04:00.793Z,42.00
2023-02-11T11:07:11.493Z,42.70
2023-02-11T11:10:19.804Z,41.90
2023-02-11T11:13:26.283Z,41.90
2023-02-11T11:16:28.905Z,42.00
2023-02-11T11:19:30.163Z,42.30
2023-02-11T11:22:31.648Z,42.40
2023-02-11T11:25:33.120Z,42.10
2023-02-11T11:28:38.591Z,42.10
2023-02-11T11:31:45.669Z,42.20
2023-02-11T11:34:49.645Z,42.10
2023-02-11T11:37:54.998Z,42.10
2023-02-11T11:41:11.099Z,42.20
2023-02-11T11:44:21.199Z,42.30
2023-02-11T11:47:26.512Z,42.10
2023-02-11T11:50:31.402Z,42.10
2023-02-11T11:53:35.487Z,42.00
2023-02-11T11:56:39.464Z,42.30
2023-02-11T11:59:41.377Z,42.10
2023-02-11T12:02:55.445Z,42.40
2023-02-11T12:06:03.695Z,42.40
2023-02-11T12:09:09.237Z,42.50
2023-02-11T12:12:16.695Z,42.20
2023-02-11T12:15:27.531Z,42.30
2023-02-11T12:18:39.334Z,42.70
2023-02-11T12:21:44.748Z,42.80
2023-02-11T12:24:55.688Z,42.60
2023-02-11T12:28:04.431Z,42.40
2023-02-11T12:31:15.745Z,42.50
2023-02-11T12:34:23.850Z,42.90
2023-02-11T12:37:32.684Z,42.60
2023-02-11T12:40:36.924Z,42.60
2023-02-11T12:43:39.247Z,42.80
2023-02-11T12:46:44.251Z,42.80
2023-02-11T12:49:54.551Z,42.90
2023-02-11T12:53:04.106Z,42.60
2023-02-11T12:56:09.245Z,42.50
2023-02-11T12:59:14.367Z,43.00
2023-02-11T13:02:20.407Z,42.70
2023-02-11T13:05:24.435Z,42.60
2023-02-11T13:08:28.321Z,42.80
2023-02-11T13:11:32.806Z,42.80
2023-02-11T13:14:36.797Z,42.80
2023-02-11T13:17:40.900Z,42.70
2023-02-11T13:20:45.270Z,43.00
2023-02-11T13:23:50.344Z,42.90
2023-02-11T13:26:57.281Z,42.90
2023-02-11T13:30:10.221Z,42.70
2023-02-11T13:33:18.647Z,42.90
2023-02-11T13:36:21.233Z,42.80
2023-02-11T13:39:22.851Z,42.80
2023-02-11T13:42:24.126Z,42.80
2023-02-11T13:45:28.256Z,42.70
2023-02-11T13:48:31.291Z,42.90
2023-02-11T13:51:35.350Z,42.70
2023-02-11T13:54:37.668Z,42.50
2023-02-11T13:57:40.054Z,42.70
2023-02-11T14:00:43.935Z,43.00
2023-02-11T14:04:14.736Z,42.70
2023-02-11T14:07:45.123Z,42.80
2023-02-11T14:10:51.484Z,42.50
2023-02-11T14:14:07.564Z,42.60
2023-02-11T14:17:18.422Z,42.70
2023-02-11T14:20:34.909Z,42.60
2023-02-11T14:23:36.803Z,42.80
2023-02-11T14:26:44.163Z,42.80
2023-02-11T14:29:50.206Z,42.70
2023-02-11T14:32:56.513Z,42.50
2023-02-11T14:36:04.889Z,42.30
2023-02-11T14:39:08.382Z,42.40
2023-02-11T14:42:16.512Z,42.60
2023-02-11T14:45:19.320Z,42.70
2023-02-11T14:48:22.379Z,42.50
2023-02-11T14:51:25.797Z,42.90
2023-02-11T14:54:27.718Z,42.40
2023-02-11T14:57:29.911Z,42.40
2023-02-11T15:00:31.146Z,42.70
2023-02-11T15:03:33.923Z,42.80
2023-02-11T15:06:36.748Z,42.60
2023-02-11T15:09:40.324Z,42.30
2023-02-11T15:12:47.052Z,42.50
2023-02-11T15:15:49.579Z,43.10
2023-02-11T15:18:52.452Z,42.80
2023-02-11T15:21:54.455Z,42.80
2023-02-11T15:24:58.470Z,42.60
2023-02-11T15:28:00.353Z,42.40
2023-02-11T15:31:02.666Z,42.60
2023-02-11T15:34:07.870Z,42.50
2023-02-11T15:37:11.569Z,42.20
2023-02-11T15:40:15.608Z,42.70
2023-02-11T15:43:17.416Z,42.40
2023-02-11T15:46:20.415Z,43.10
2023-02-11T15:49:23.038Z,42.50
2023-02-11T15:52:25.892Z,43.00
2023-02-11T15:55:27.759Z,42.80
2023-02-11T15:58:35.017Z,43.00
2023-02-11T16:01:37.465Z,42.90
2023-02-11T16:04:38.909Z,42.60
2023-02-11T16:07:41.695Z,42.40
2023-02-11T16:10:53.136Z,43.00
2023-02-11T16:13:55.103Z,42.80
2023-02-11T16:16:57.608Z,43.10
2023-02-11T16:19:59.017Z,42.60
2023-02-11T16:23:00.882Z,43.10
2023-02-11T16:26:06.283Z,42.60
2023-02-11T16:29:10.060Z,42.60
2023-02-11T16:32:15.733Z,43.30
2023-02-11T16:35:17.194Z,42.80
2023-02-11T16:38:18.418Z,42.70
2023-02-11T16:41:19.780Z,43.00
2023-02-11T16:44:21.604Z,42.50
2023-02-11T16:47:24.035Z,43.20
2023-02-11T16:50:25.316Z,42.80
2023-02-11T16:53:26.730Z,43.00
2023-02-11T16:56:28.248Z,42.40
2023-02-11T16:59:30.065Z,43.30
2023-02-11T17:02:32.973Z,42.70
2023-02-11T17:05:49.417Z,42.80
2023-02-11T17:08:55.866Z,42.90
2023-02-11T17:11:57.153Z,43.30
2023-02-11T17:14:59.630Z,42.90
2023-02-11T17:18:00.971Z,43.00
2023-02-11T17:21:05.735Z,43.10
2023-02-11T17:24:07.116Z,43.30
2023-02-11T17:27:09.343Z,43.10
2023-02-11T17:30:12.641Z,43.20
2023-02-11T17:33:13.914Z,43.30
2023-02-11T17:36:15.168Z,43.60
2023-02-11T17:39:16.404Z,43.30
2023-02-11T17:42:18.588Z,43.50
2023-02-11T17:45:22.277Z,43.40
2023-02-11T17:48:24.275Z,43.50
2023-02-11T17:51:26.866Z,43.20
2023-02-11T17:54:28.170Z,43.70
2023-02-11T17:57:29.667Z,43.40
2023-02-11T18:00:31.546Z,43.80
2023-02-11T18:03:32.788Z,43.70
2023-02-11T18:06:34.553Z,44.00
2023-02-11T18:09:36.255Z,43.50
2023-02-11T18:12:37.473Z,43.40
2023-02-11T18:15:39.274Z,43.70
2023-02-11T18:18:40.538Z,44.00
2023-02-11T18:21:41.864Z,43.80
2023-02-11T18:24:43.184Z,44.00
2023-02-11T18:27:45.606Z,43.70
2023-02-11T18:30:47.534Z,44.20
2023-02-11T18:33:48.881Z,43.90
2023-02-11T18:36:50.682Z,43.90
2023-02-11T18:39:51.972Z,43.80
2023-02-11T18:42:53.232Z,44.00
2023-02-11T18:45:55.465Z,44.00
2023-02-11T18:48:56.911Z,43.70
2023-02-11T18:51:58.375Z,43.80
2023-02-11T18:54:59.687Z,44.00
2023-02-11T18:58:01.115Z,44.00
2023-02-11T19:01:08.481Z,43.80
2023-02-11T19:04:10.612Z,44.10
2023-02-11T19:07:11.857Z,44.50
2023-02-11T19:10:13.143Z,44.30
2023-02-11T19:13:14.476Z,44.30
2023-02-11T19:16:18.904Z,44.00
2023-02-11T19:19:21.246Z,44.20
2023-02-11T19:22:22.497Z,44.10
2023-02-11T19:25:23.788Z,44.20
2023-02-11T19:28:25.288Z,44.20
2023-02-11T19:31:27.291Z,44.10
2023-02-11T19:34:28.785Z,44.20
2023-02-11T19:37:30.035Z,44.20
2023-02-11T19:40:31.877Z,44.20
2023-02-11T19:43:33.119Z,44.10
2023-02-11T19:46:35.864Z,44.20
2023-02-11T19:49:37.214Z,44.20
2023-02-11T19:52:38.640Z,44.20
2023-02-11T19:55:39.930Z,44.60
2023-02-11T19:58:41.711Z,44.10
2023-02-11T20:01:46.676Z,44.30
2023-02-11T20:04:48.139Z,44.40
2023-02-11T20:07:49.373Z,44.70
2023-02-11T20:10:50.720Z,44.60
2023-02-11T20:13:52.004Z,44.70
2023-02-11T20:16:53.883Z,44.50
2023-02-11T20:19:55.113Z,44.60
2023-02-11T20:22:57.775Z,44.50
2023-02-11T20:26:03.783Z,44.20
2023-02-11T20:29:05.257Z,44.40
2023-02-11T20:32:07.645Z,44.90
2023-02-11T20:35:09.125Z,44.50
2023-02-11T20:38:10.329Z,44.30
2023-02-11T20:41:13.111Z,44.70
2023-02-11T20:44:14.746Z,44.60
2023-02-11T20:47:16.623Z,44.20
2023-02-11T20:50:17.912Z,44.80
2023-02-11T20:53:19.206Z,44.50
2023-02-11T20:56:21.646Z,44.50
2023-02-11T20:59:23.103Z,44.30
2023-02-11T21:02:25.093Z,44.50
2023-02-11T21:05:26.467Z,44.50
2023-02-11T21:08:27.697Z,44.60
2023-02-11T21:11:30.263Z,44.70
2023-02-11T21:14:31.513Z,44.80
2023-02-11T21:17:33.586Z,44.40
2023-02-11T21:20:34.869Z,44.80
2023-02-11T21:23:37.277Z,44.30
2023-02-11T21:26:38.723Z,44.40
2023-02-11T21:29:49.293Z,44.60
2023-02-11T21:32:57.022Z,44.30
2023-02-11T21:35:59.094Z,44.30
2023-02-11T21:39:00.998Z,44.70
2023-02-11T21:42:02.236Z,44.60
2023-02-11T21:45:03.623Z,44.50
2023-02-11T21:48:05.465Z,44.40
2023-02-11T21:51:08.065Z,44.80
2023-02-11T21:54:10.440Z,44.40
2023-02-11T21:57:11.796Z,44.90
2023-02-11T22:00:13.511Z,44.70
2023-02-11T22:03:15.361Z,44.30
2023-02-11T22:06:17.736Z,44.70
2023-02-11T22:09:19.069Z,44.40
2023-02-11T22:12:20.433Z,44.50
2023-02-11T22:15:21.688Z,44.80
2023-02-11T22:18:23.488Z,44.60
2023-02-11T22:21:24.896Z,44.40
2023-02-11T22:24:26.437Z,44.50
2023-02-11T22:27:27.810Z,44.40
2023-02-11T22:30:29.115Z,45.10
2023-02-11T22:33:31.027Z,44.60
2023-02-11T22:36:33.704Z,44.50
2023-02-11T22:39:34.958Z,44.50
2023-02-11T22:42:36.164Z,44.50
2023-02-11T22:45:37.458Z,44.60
2023-02-11T22:48:39.266Z,44.20
2023-02-11T22:51:40.518Z,44.30
2023-02-11T22:54:41.804Z,44.30
2023-02-11T22:57:43.313Z,44.30
2023-02-11T23:00:44.634Z,44.20
2023-02-11T23:03:46.648Z,44.70
2023-02-11T23:06:49.213Z,44.30
2023-02-11T23:09:50.433Z,44.10
2023-02-11T23:12:51.688Z,44.20
2023-02-11T23:15:53.084Z,44.20
2023-02-11T23:18:54.995Z,44.40
2023-02-11T23:21:56.238Z,44.30
2023-02-11T23:24:57.557Z,44.60
2023-02-11T23:27:59.423Z,44.30
2023-02-11T23:31:00.978Z,44.20
2023-02-11T23:34:03.172Z,44.70
2023-02-11T23:37:04.438Z,44.50
2023-02-11T23:40:06.098Z,44.40
2023-02-11T23:43:07.335Z,44.30
2023-02-11T23:46:08.761Z,44.60
2023-02-11T23:49:10.650Z,44.50
2023-02-11T23:52:11.887Z,44.50
2023-02-11T23:55:13.136Z,44.50
2023-02-11T23:58:14.700Z,44.40
